Historyczne dane pomiarowe

Dodano dane terminowe – wersja testowa.

Dane z okresu 1951-2019

Wersja bazy: 1.34 [2019-03-16, lista zmian], aktualizacja planowana na 2019-04-15

Dane meteo z obszaru Polski uzyskane na podstawie danych udostępnionych przez Instytut Meteorologii i Gospodarki Wodnej – Państwowy Instytut Badawczy.

 

Wybierz Datę:    

       

TemperaturaWilgotnośćWiatrCiśnienieOpadyŚniegCzas trwania zjawisk
 Stacja t tx tn tng RH VA  wxwx mslp ppp RRR   cm mm wxwxwxwxwxwxwx
1959-10-10 9.2 14.3 3.7 0.1 60.5- 0.0 3.0---- 0.0------------
1959-10-09 10.2 16.1 5.3 3.0 67.5- 0.0 3.3---- 0.0------------
1959-10-08 13.8 18.8 7.3 0.6 46.8- 0.0 2.0---- 0.0------------
1959-10-07 12.3 18.4 3.9 0.1 43.0- 0.0 2.0---- 0.0------------
1959-10-06 7.8 13.7 -0.2 -2.0 44.8- 1.7 3.7---- 0.0------------
1959-10-05 4.6 10.1 -0.8 -2.9 52.3- 1.3 4.7---- 0.0------------
1959-10-04 7.3 11.1 5.4 1.6 79.8- 5.3 3.7---- 0.0------------
1959-10-03 12.5 19.2 10.2 3.7 66.5- 2.0 1.7---- 0.0------------
1959-10-02 14.6 21.1 8.8 3.1 57.3- 1.7 2.3---- 0.0------------
1959-10-01 11.5 18.1 4.7 -1.2 64.8- 0.3 0.7---- 0.0------------
1959-09-30 9.5 14.6 4.5 -2.2 65.5- 0.0 1.3---- 0.0------------
1959-09-29 8.0 14.2 2.5 -4.4 68.3- 3.0 1.0---- 0.0------------
1959-09-28 8.2 14.3 5.5 4.7 72.5- 4.0 2.7---- 0.0------------
1959-09-27 13.4 20.1 10.8 7.6 57.5- 4.0 3.0---- 0.0------------
1959-09-26 12.8 18.7 5.3 2.5 49.8- 1.0 2.7---- 0.0------------
1959-09-25 10.1 16.6 4.5 -0.6 69.3- 2.3 1.3---- 0.0------------
1959-09-24 10.4 14.6 8.6 6.3 86.8- 4.0 2.7---- 1.1------------
1959-09-23 13.6 17.7 6.1 8.5 69.3- 3.3 4.7---- 0.0------------
1959-09-22 14.8 17.5 13.5 11.9 74.8- 5.3 5.7---- 0.0------------
1959-09-21 16.0 23.3 7.2 2.8 60.5- 1.0 2.7---- 0.0------------
1959-09-20 12.5 17.8 9.0 6.3 75.8- 4.0 2.3---- 0.0------------
1959-09-19 14.4 19.8 8.7 2.7 48.5- 1.3 2.3---- 0.0------------
1959-09-18 11.7 17.3 5.5 0.0 55.8- 1.0 2.0---- 0.0------------
1959-09-17 9.5 16.5 4.8 -2.9 60.0- 0.7 1.3---- 0.0------------
1959-09-16 11.9 18.6 8.8 5.6 66.0- 4.3 3.7---- 0.0------------
1959-09-15 16.1 22.0 7.6 1.5 50.8- 0.0 1.7---- 0.0------------
1959-09-14 13.3 20.0 8.5 6.2 62.3- 1.7 2.0---- 0.0------------
1959-09-13 17.4 22.9 14.7 9.8 60.8- 7.0 3.7---- 0.0------------
1959-09-12 18.8 25.2 11.2 4.6 55.8- 0.7 1.7---- 0.0------------
1959-09-11 17.1 23.7 12.2 6.6 66.0- 1.0 2.0---- 0.0------------
1959-09-10 17.3 23.6 12.0 6.4 65.5- 0.0 1.3---- 0.0------------
1959-09-09 15.9 22.4 11.1 5.2 72.5- 1.7 1.0---- 0.0------------
1959-09-08 16.9 22.4 11.8 5.0 61.3- 3.7 2.0---- 0.0------------
1959-09-07 14.4 20.7 8.3 2.5 67.8- 1.3 1.3---- 0.0------------
1959-09-06 15.0 19.9 11.0 5.3 72.8- 5.3 1.0---- 0.0------------
1959-09-05 16.2 21.6 10.0 4.7 69.5- 1.0 2.0---- 0.0------------
1959-09-04 15.2 22.5 8.8 3.5 73.3- 1.3 1.7---- 0.0------------
1959-09-03 15.2 21.1 10.4 4.0 73.0- 3.3 1.3---- 0.0------------
1959-09-02 13.5 20.1 6.6 0.6 72.3- 1.3 1.0---- 0.0------------
1959-09-01 12.5 17.8 8.0 1.5 68.0- 3.7 1.0---- 0.0------------
1959-08-31 12.3 17.5 7.2 0.6 77.0- 4.0 2.3---- 0.2------------
1959-08-30 11.2 15.7 7.4 5.5 73.8- 2.7 2.7---- 0.0------------
1959-08-29 11.9 17.6 7.1 3.0 70.3- 3.0 2.7---- 0.3------------
1959-08-28 12.9 18.2 10.4 7.0 81.8- 4.7 4.0---- 0.2------------
1959-08-27 15.3 22.2 13.4 13.0 59.8- 4.7 5.0---- 0.0------------
1959-08-26 21.6 25.3 19.1 18.7 70.0- 7.0 5.0---- 0.0------------
1959-08-25 22.8 26.9 18.7 13.0 68.3- 6.7 4.3---- 0.0------------
1959-08-24 23.3 28.7 17.5 12.9 69.8- 0.7 1.3---- 0.0------------
1959-08-23 23.7 29.8 17.8 12.8 56.8- 3.7 2.7---- 0.0------------
1959-08-22 23.0 28.9 16.6 13.3 56.3- 5.3 2.7---- 0.0------------
1959-08-21 23.1 27.9 17.4 13.5 54.8- 1.0 2.7---- 0.0------------
1959-08-20 22.1 27.3 14.9 9.9 57.8- 2.7 3.0---- 0.0------------
1959-08-19 19.8 25.5 14.6 10.7 66.8- 1.7 2.3---- 0.0------------
1959-08-18 19.5 26.0 13.7 9.5 71.8- 2.3 1.7---- 0.1------------
1959-08-17 17.5 23.6 12.2 12.4 85.0- 4.3 0.7---- 0.3------------
1959-08-16 14.7 20.6 13.2 12.5 93.8- 7.0 3.0---- 0.0------------
1959-08-15 20.6 25.3 15.7 14.4 77.5- 5.7 3.0---- 0.0------------
1959-08-14 19.3 22.1 17.0 15.8 89.3- 7.0 3.3---- 0.0------------
1959-08-13 21.2 26.2 15.9 14.0 80.8- 3.7 2.3---- 0.0------------
1959-08-12 18.0 21.3 15.7 11.4 92.3- 6.0 0.7---- 8.5------------
133.8 ms

 

Źródłem pochodzenia danych jest Instytut Meteorologii i Gospodarki Wodnej – Państwowy Instytut Badawczy. Dane Instytutu Meteorologii i Gospodarki Wodnej – Państwowego Instytutu Badawczego zostały przetworzone.

Dane źródłowe można odnaleźć na stronie https://dane.imgw.pl